createdAt,value
2022-12-25T00:01:57.503Z,13.55
2022-12-25T00:06:59.735Z,19.60
2022-12-25T00:12:01.339Z,7.50
2022-12-25T00:17:02.999Z,7.28
2022-12-25T00:22:04.643Z,8.52
2022-12-25T00:27:06.327Z,16.40
2022-12-25T00:32:08.150Z,9.88
2022-12-25T00:37:09.777Z,19.05
2022-12-25T00:42:20.450Z,13.95
2022-12-25T00:47:22.266Z,18.48
2022-12-25T00:52:23.895Z,13.60
2022-12-25T00:57:25.518Z,14.60
2022-12-25T01:02:27.325Z,11.77
2022-12-25T01:07:29.147Z,13.02
2022-12-25T01:12:33.225Z,15.55
2022-12-25T01:17:35.153Z,13.50
2022-12-25T01:22:36.919Z,15.43
2022-12-25T01:27:40.997Z,17.67
2022-12-25T01:32:42.619Z,12.75
2022-12-25T01:37:44.266Z,10.00
2022-12-25T01:42:45.901Z,11.55
2022-12-25T01:47:47.586Z,16.67
2022-12-25T01:52:50.677Z,19.63
2022-12-25T01:57:52.404Z,14.82
2022-12-25T02:02:54.105Z,18.77
2022-12-25T02:07:58.301Z,12.23
2022-12-25T02:13:01.196Z,12.88
2022-12-25T02:18:26.864Z,10.18
2022-12-25T02:23:34.726Z,9.63
2022-12-25T02:28:36.998Z,11.52
2022-12-25T02:34:26.050Z,14.40
2022-12-25T02:39:55.239Z,12.23
2022-12-25T02:45:15.639Z,18.92
2022-12-25T02:50:36.859Z,11.15
2022-12-25T02:56:00.284Z,16.63
2022-12-25T03:01:33.571Z,14.82
2022-12-25T03:06:44.005Z,8.07
2022-12-25T03:11:48.579Z,9.25
2022-12-25T03:16:54.152Z,17.27
2022-12-25T03:22:16.279Z,15.68
2022-12-25T03:27:17.971Z,8.55
2022-12-25T03:32:27.573Z,9.73
2022-12-25T03:38:18.596Z,15.40
2022-12-25T03:44:06.733Z,12.00
2022-12-25T03:49:43.725Z,12.93
2022-12-25T03:55:06.116Z,9.18
2022-12-25T04:00:26.817Z,9.45
2022-12-25T04:05:47.144Z,13.75
2022-12-25T04:11:07.411Z,15.23
2022-12-25T04:16:27.795Z,14.18
2022-12-25T04:21:48.165Z,12.40
2022-12-25T04:27:08.376Z,15.13
2022-12-25T04:32:28.506Z,7.88
2022-12-25T04:37:30.252Z,12.63
2022-12-25T04:42:31.874Z,10.60
2022-12-25T04:47:33.529Z,9.43
2022-12-25T04:52:40.428Z,10.10
2022-12-25T04:57:42.144Z,14.93
2022-12-25T05:02:43.846Z,16.07
2022-12-25T05:07:45.725Z,19.53
2022-12-25T05:12:47.586Z,10.27
2022-12-25T05:17:50.684Z,10.38
2022-12-25T05:22:52.273Z,12.70
2022-12-25T05:27:54.122Z,14.10
2022-12-25T05:32:55.894Z,22.47
2022-12-25T05:37:57.880Z,14.07
2022-12-25T05:42:59.712Z,11.35
2022-12-25T05:48:01.607Z,10.03
2022-12-25T05:53:08.324Z,11.40
2022-12-25T05:58:12.449Z,18.70
2022-12-25T06:03:14.235Z,15.43
2022-12-25T06:08:16.105Z,10.85
2022-12-25T06:13:17.718Z,15.87
2022-12-25T06:18:19.316Z,14.50
2022-12-25T06:23:21.055Z,16.43
2022-12-25T06:28:22.725Z,13.80
2022-12-25T06:33:24.385Z,10.80
2022-12-25T06:38:25.983Z,17.27
2022-12-25T06:43:27.535Z,12.35
2022-12-25T06:48:29.150Z,14.45
2022-12-25T06:53:37.077Z,18.53
2022-12-25T06:58:43.271Z,13.70
2022-12-25T07:03:46.751Z,15.10
2022-12-25T07:08:48.723Z,14.73
2022-12-25T07:13:50.724Z,14.18
2022-12-25T07:18:52.341Z,12.77
2022-12-25T07:23:53.969Z,10.45
2022-12-25T07:28:56.308Z,10.35
2022-12-25T07:33:58.005Z,10.83
2022-12-25T07:38:59.673Z,16.50
2022-12-25T07:44:02.516Z,8.25
2022-12-25T07:49:04.485Z,12.27
2022-12-25T07:54:06.133Z,10.63
2022-12-25T07:59:07.734Z,9.35
2022-12-25T08:04:09.729Z,14.02
2022-12-25T08:09:13.014Z,12.35
2022-12-25T08:14:14.719Z,10.77
2022-12-25T08:19:16.434Z,16.23
2022-12-25T08:24:18.173Z,16.33
2022-12-25T08:29:19.845Z,15.68
2022-12-25T08:34:21.782Z,12.35
2022-12-25T08:39:23.453Z,15.33
2022-12-25T08:44:25.088Z,17.00
2022-12-25T08:49:29.149Z,8.57
2022-12-25T08:54:33.787Z,10.80
2022-12-25T08:59:35.417Z,16.90
2022-12-25T09:04:37.036Z,11.60
2022-12-25T09:09:38.687Z,12.50
2022-12-25T09:14:40.308Z,16.83
2022-12-25T09:19:41.924Z,15.73
2022-12-25T09:24:43.844Z,11.38
2022-12-25T09:29:45.445Z,15.07
2022-12-25T09:34:47.080Z,18.80
2022-12-25T09:39:48.775Z,14.10
2022-12-25T09:45:00.484Z,11.65
2022-12-25T09:50:15.220Z,12.80
2022-12-25T09:55:23.086Z,26.05
2022-12-25T10:00:32.066Z,21.85
2022-12-25T10:05:52.991Z,17.08
2022-12-25T10:11:04.160Z,16.63
2022-12-25T10:16:38.744Z,19.75
2022-12-25T10:21:41.410Z,14.73
2022-12-25T10:26:43.162Z,10.70
2022-12-25T10:31:47.235Z,14.10
2022-12-25T10:36:50.155Z,9.95
2022-12-25T10:42:05.698Z,5.10
2022-12-25T10:47:07.312Z,6.85
2022-12-25T10:52:27.985Z,12.00
2022-12-25T10:57:29.868Z,12.07
2022-12-25T11:02:40.466Z,9.93
2022-12-25T11:07:51.328Z,13.25
2022-12-25T11:12:54.093Z,13.10
2022-12-25T11:17:55.700Z,10.63
2022-12-25T11:22:57.380Z,9.82
2022-12-25T11:28:02.506Z,14.98
2022-12-25T11:33:12.403Z,7.82
2022-12-25T11:38:14.011Z,6.97
2022-12-25T11:43:20.331Z,9.15
2022-12-25T11:48:31.620Z,6.72
2022-12-25T11:53:39.913Z,6.40
2022-12-25T11:58:55.477Z,12.20
2022-12-25T12:04:00.767Z,12.20
2022-12-25T12:09:21.479Z,6.13
2022-12-25T12:14:32.213Z,9.18
2022-12-25T12:19:34.864Z,9.18
2022-12-25T12:24:41.711Z,9.32
2022-12-25T12:29:45.617Z,10.55
2022-12-25T12:34:50.606Z,9.90
2022-12-25T12:39:56.158Z,5.95
2022-12-25T12:45:08.992Z,7.18
2022-12-25T12:50:41.141Z,6.72
2022-12-25T12:55:42.821Z,3.95
2022-12-25T13:00:52.421Z,7.10
2022-12-25T13:06:14.524Z,12.35
2022-12-25T13:11:25.525Z,8.23
2022-12-25T13:16:33.640Z,9.85
2022-12-25T13:21:35.701Z,8.38
2022-12-25T13:26:39.310Z,9.63
2022-12-25T13:31:41.519Z,12.18
2022-12-25T13:36:43.330Z,8.57
2022-12-25T13:42:06.275Z,8.77
2022-12-25T13:47:21.590Z,8.85
2022-12-25T13:52:35.254Z,15.27
2022-12-25T13:57:43.723Z,14.68
2022-12-25T14:02:46.404Z,8.48
2022-12-25T14:07:55.980Z,6.10
2022-12-25T14:13:01.210Z,8.65
2022-12-25T14:18:03.021Z,6.68
2022-12-25T14:23:05.236Z,6.60
2022-12-25T14:28:09.884Z,6.28
2022-12-25T14:33:21.209Z,8.40
2022-12-25T14:38:34.926Z,7.90
2022-12-25T14:43:36.663Z,4.95
2022-12-25T14:48:38.283Z,6.43
2022-12-25T14:53:47.705Z,6.07
2022-12-25T14:58:52.705Z,6.75
2022-12-25T15:04:06.055Z,8.25
2022-12-25T15:09:16.601Z,9.85
2022-12-25T15:14:18.841Z,10.40
2022-12-25T15:19:30.407Z,12.32
2022-12-25T15:24:35.058Z,18.88
2022-12-25T15:30:08.803Z,15.10
2022-12-25T15:34:58.242Z,9.82
2022-12-25T15:39:59.892Z,15.57
2022-12-25T15:45:01.508Z,19.45
2022-12-25T15:50:03.293Z,14.45
2022-12-25T15:55:06.418Z,20.55
2022-12-25T16:00:13.495Z,15.77
2022-12-25T16:05:15.399Z,18.48
2022-12-25T16:10:19.289Z,12.25
2022-12-25T16:15:20.885Z,17.02
2022-12-25T16:20:22.502Z,15.45
2022-12-25T16:25:24.263Z,17.60
2022-12-25T16:30:25.928Z,17.45
2022-12-25T16:35:27.611Z,14.25
2022-12-25T16:40:29.567Z,11.25
2022-12-25T16:45:31.257Z,6.43
2022-12-25T16:50:32.985Z,23.42
2022-12-25T16:55:36.806Z,8.93
2022-12-25T17:00:38.445Z,5.68
2022-12-25T17:05:40.074Z,7.45
2022-12-25T17:10:41.671Z,12.25
2022-12-25T17:15:48.494Z,5.80
2022-12-25T17:20:53.805Z,8.38
2022-12-25T17:25:55.415Z,5.63
2022-12-25T17:31:05.924Z,5.63
2022-12-25T17:36:13.978Z,13.07
2022-12-25T17:41:17.705Z,5.22
2022-12-25T17:46:22.300Z,8.80
2022-12-25T17:51:26.205Z,5.22
2022-12-25T17:56:27.849Z,8.45
2022-12-25T18:01:29.564Z,8.75
2022-12-25T18:06:31.318Z,5.75
2022-12-25T18:11:33.309Z,4.43
2022-12-25T18:16:37.707Z,4.65
2022-12-25T18:21:39.455Z,6.25
2022-12-25T18:26:41.122Z,7.47
2022-12-25T18:31:42.855Z,5.97
2022-12-25T18:36:44.971Z,6.40
2022-12-25T18:42:05.014Z,6.43
2022-12-25T18:47:06.659Z,5.80
2022-12-25T18:52:49.173Z,8.05
2022-12-25T18:57:32.165Z,3.90
2022-12-25T19:02:33.927Z,7.05
2022-12-25T19:07:36.522Z,3.45
2022-12-25T19:12:38.125Z,3.65
2022-12-25T19:17:39.785Z,5.30
2022-12-25T19:22:41.423Z,7.47
2022-12-25T19:27:43.040Z,3.08
2022-12-25T19:32:44.676Z,4.55
2022-12-25T19:37:46.269Z,5.50
2022-12-25T19:42:47.889Z,5.55
2022-12-25T19:47:49.515Z,4.90
2022-12-25T19:52:51.134Z,9.15
2022-12-25T19:57:52.828Z,3.63
2022-12-25T20:02:54.580Z,5.25
2022-12-25T20:07:57.210Z,5.35
2022-12-25T20:12:58.821Z,7.05
2022-12-25T20:18:01.679Z,5.43
2022-12-25T20:23:03.732Z,4.43
2022-12-25T20:28:05.341Z,5.50
2022-12-25T20:33:07.618Z,4.72
2022-12-25T20:38:09.232Z,7.75
2022-12-25T20:43:10.837Z,3.95
2022-12-25T20:48:13.116Z,6.82
2022-12-25T20:53:15.021Z,4.68
2022-12-25T20:58:17.868Z,6.10
2022-12-25T21:03:19.602Z,7.63
2022-12-25T21:08:24.906Z,5.15
2022-12-25T21:13:29.594Z,3.95
2022-12-25T21:18:31.296Z,4.43
2022-12-25T21:23:35.721Z,5.07
2022-12-25T21:28:37.492Z,3.80
2022-12-25T21:33:55.160Z,3.80
2022-12-25T21:38:59.428Z,4.40
2022-12-25T21:44:01.455Z,3.75
2022-12-25T21:49:03.218Z,3.45
2022-12-25T21:54:05.784Z,7.25
2022-12-25T21:59:08.915Z,2.78
2022-12-25T22:04:11.599Z,4.75
2022-12-25T22:09:13.220Z,3.85
2022-12-25T22:14:51.404Z,2.58
2022-12-25T22:19:55.780Z,2.30
2022-12-25T22:25:00.704Z,2.75
2022-12-25T22:30:02.499Z,4.10
2022-12-25T22:35:04.432Z,1.85
2022-12-25T22:40:07.483Z,2.00
2022-12-25T22:45:09.654Z,2.30
2022-12-25T22:50:12.937Z,1.45
2022-12-25T22:55:17.420Z,1.60
2022-12-25T23:00:19.096Z,2.80
2022-12-25T23:05:20.671Z,2.00
2022-12-25T23:10:22.312Z,1.63
2022-12-25T23:15:24.074Z,2.60
2022-12-25T23:20:44.684Z,2.70
2022-12-25T23:26:06.720Z,2.67
2022-12-25T23:31:09.421Z,3.08
2022-12-25T23:36:11.206Z,3.38
2022-12-25T23:41:12.803Z,1.52
2022-12-25T23:46:15.164Z,2.70
2022-12-25T23:51:16.861Z,2.08
2022-12-25T23:56:18.477Z,2.47
